Time,TemperatureF,DewpointF,PressureIn,WindDirection,WindDirectionDegrees,WindSpeedMPH,WindSpeedGustMPH,Humidity,HourlyPrecipIn,Conditions,Clouds,dailyrainin,SoftwareType,DateUTC
2013-11-12 00:03:00,29.3,24.8,30.44,NNW,334,7.0,18.0,83,0.00,,,0.06,meteohub,2013-11-12 06:03:00,
2013-11-12 00:08:00,29.1,24.3,30.45,NNE,13,9.0,18.0,82,0.00,,,0.00,meteohub,2013-11-12 06:08:00,
2013-11-12 00:13:00,29.1,24.1,30.45,NNE,16,15.0,16.0,81,0.00,,,0.00,meteohub,2013-11-12 06:13:00,
2013-11-12 00:19:00,28.9,23.5,30.45,North,350,13.0,18.0,80,0.00,,,0.00,meteohub,2013-11-12 06:19:00,
2013-11-12 00:24:00,28.9,23.2,30.45,North,5,8.0,20.0,79,0.00,,,0.00,meteohub,2013-11-12 06:24:00,
2013-11-12 00:29:00,28.8,23.4,30.45,NNE,16,8.0,20.0,80,0.00,,,0.00,meteohub,2013-11-12 06:29:00,
2013-11-12 00:34:00,28.8,23.0,30.45,North,349,7.0,20.0,79,0.00,,,0.00,meteohub,2013-11-12 06:34:00,
2013-11-12 00:39:00,28.8,23.0,30.45,North,5,9.0,18.0,79,0.00,,,0.00,meteohub,2013-11-12 06:39:00,
2013-11-12 00:44:00,28.8,22.8,30.46,NNE,17,18.0,19.0,78,0.00,,,0.00,meteohub,2013-11-12 06:44:00,
2013-11-12 00:49:00,28.6,22.3,30.46,North,0,5.0,19.0,77,0.00,,,0.00,meteohub,2013-11-12 06:49:00,
2013-11-12 00:54:00,28.6,22.6,30.46,North,11,8.0,25.0,78,0.00,,,0.00,meteohub,2013-11-12 06:54:00,
2013-11-12 00:59:00,28.4,22.5,30.46,North,9,9.0,25.0,78,0.00,,,0.00,meteohub,2013-11-12 06:59:00,
2013-11-12 01:04:00,28.4,22.5,30.46,NNE,17,14.0,19.0,78,0.00,,,0.00,meteohub,2013-11-12 07:04:00,
2013-11-12 01:09:00,28.2,21.9,30.47,NNW,348,11.0,19.0,77,0.00,,,0.00,meteohub,2013-11-12 07:09:00,
2013-11-12 01:14:00,28.2,21.9,30.47,North,5,10.0,21.0,77,0.00,,,0.00,meteohub,2013-11-12 07:14:00,
2013-11-12 01:19:00,28.0,22.1,30.47,North,355,7.0,21.0,78,0.00,,,0.00,meteohub,2013-11-12 07:19:00,
2013-11-12 01:24:00,28.0,22.1,30.48,NNE,15,13.0,21.0,78,0.00,,,0.00,meteohub,2013-11-12 07:24:00,
2013-11-12 01:29:00,27.9,21.9,30.48,North,355,6.0,18.0,78,0.00,,,0.00,meteohub,2013-11-12 07:29:00,
2013-11-12 01:34:00,27.9,21.9,30.48,NNE,16,9.0,18.0,78,0.00,,,0.00,meteohub,2013-11-12 07:34:00,
2013-11-12 01:39:00,27.7,21.7,30.48,NNW,348,11.0,18.0,78,0.00,,,0.00,meteohub,2013-11-12 07:39:00,
2013-11-12 01:44:00,27.5,21.6,30.49,NNE,25,6.0,14.0,78,0.00,,,0.00,meteohub,2013-11-12 07:44:00,
2013-11-12 01:50:00,27.3,21.4,30.49,NNW,348,5.0,13.0,78,0.00,,,0.00,meteohub,2013-11-12 07:50:00,
2013-11-12 01:55:00,27.3,21.7,30.49,North,11,6.0,12.0,79,0.00,,,0.00,meteohub,2013-11-12 07:55:00,
2013-11-12 02:00:00,27.1,21.6,30.49,North,349,5.0,12.0,79,0.00,,,0.00,meteohub,2013-11-12 08:00:00,
2013-11-12 02:05:00,27.1,21.6,30.49,North,355,4.0,12.0,79,0.00,,,0.00,meteohub,2013-11-12 08:05:00,
2013-11-12 02:10:00,27.0,21.4,30.49,NNW,338,6.0,11.0,79,0.00,,,0.00,meteohub,2013-11-12 08:10:00,
2013-11-12 02:15:00,26.8,21.4,30.50,North,355,7.0,11.0,80,0.00,,,0.00,meteohub,2013-11-12 08:15:00,
2013-11-12 02:20:00,26.4,21.0,30.50,North,5,4.0,11.0,80,0.00,,,0.00,meteohub,2013-11-12 08:20:00,
2013-11-12 02:25:00,26.2,20.8,30.50,North,5,4.0,10.0,80,0.00,,,0.00,meteohub,2013-11-12 08:25:00,
2013-11-12 02:30:00,26.2,21.2,30.50,NNE,18,5.0,8.0,81,0.00,,,0.00,meteohub,2013-11-12 08:30:00,
2013-11-12 02:35:00,26.1,21.0,30.50,North,355,2.0,10.0,81,0.00,,,0.00,meteohub,2013-11-12 08:35:00,
2013-11-12 02:40:00,26.1,21.0,30.51,North,355,5.0,10.0,81,0.00,,,0.00,meteohub,2013-11-12 08:40:00,
2013-11-12 02:45:00,25.9,20.8,30.51,NNE,22,10.0,11.0,81,0.00,,,0.00,meteohub,2013-11-12 08:45:00,
2013-11-12 02:50:00,25.9,20.8,30.51,North,0,6.0,11.0,81,0.00,,,0.00,meteohub,2013-11-12 08:50:00,
2013-11-12 02:55:00,25.9,20.8,30.51,North,355,5.0,11.0,81,0.00,,,0.00,meteohub,2013-11-12 08:55:00,
2013-11-12 03:00:00,25.9,20.5,30.52,NW,313,7.0,12.0,80,0.00,,,0.00,meteohub,2013-11-12 09:00:00,
2013-11-12 03:05:00,25.9,20.5,30.52,NNE,15,8.0,12.0,80,0.00,,,0.00,meteohub,2013-11-12 09:05:00,
2013-11-12 03:10:00,25.9,20.5,30.52,North,355,8.0,12.0,80,0.00,,,0.00,meteohub,2013-11-12 09:10:00,
2013-11-12 03:15:00,26.1,20.7,30.52,North,11,9.0,13.0,80,0.00,,,0.00,meteohub,2013-11-12 09:15:00,
2013-11-12 03:20:00,25.9,20.3,30.53,North,351,5.0,13.0,79,0.00,,,0.00,meteohub,2013-11-12 09:20:00,
2013-11-12 03:26:00,25.9,20.3,30.52,North,355,6.0,13.0,79,0.00,,,0.00,meteohub,2013-11-12 09:26:00,
2013-11-12 03:31:00,25.9,20.3,30.53,North,0,9.0,11.0,79,0.00,,,0.00,meteohub,2013-11-12 09:31:00,
2013-11-12 03:36:00,25.5,19.9,30.53,North,5,7.0,12.0,79,0.00,,,0.00,meteohub,2013-11-12 09:36:00,
2013-11-12 03:41:00,25.3,19.8,30.53,NW,319,5.0,12.0,79,0.00,,,0.00,meteohub,2013-11-12 09:41:00,
2013-11-12 03:46:00,25.3,19.8,30.53,NNW,348,4.0,11.0,79,0.00,,,0.00,meteohub,2013-11-12 09:46:00,
2013-11-12 03:51:00,25.2,19.6,30.53,NNW,329,7.0,11.0,79,0.00,,,0.00,meteohub,2013-11-12 09:51:00,
2013-11-12 03:56:00,25.0,19.8,30.54,NW,323,5.0,11.0,80,0.00,,,0.00,meteohub,2013-11-12 09:56:00,
2013-11-12 04:01:00,24.8,19.6,30.54,North,5,5.0,10.0,80,0.00,,,0.00,meteohub,2013-11-12 10:01:00,
2013-11-12 04:06:00,24.6,19.4,30.54,NNW,342,5.0,10.0,80,0.00,,,0.00,meteohub,2013-11-12 10:06:00,
2013-11-12 04:11:00,24.4,19.2,30.55,NNW,344,6.0,10.0,80,0.00,,,0.00,meteohub,2013-11-12 10:11:00,
2013-11-12 04:16:00,24.4,19.4,30.55,NNW,330,4.0,9.0,81,0.00,,,0.00,meteohub,2013-11-12 10:16:00,
2013-11-12 04:21:00,24.3,19.2,30.55,North,0,5.0,8.0,81,0.00,,,0.00,meteohub,2013-11-12 10:21:00,
2013-11-12 04:26:00,24.3,19.2,30.55,NNW,338,8.0,8.0,81,0.00,,,0.00,meteohub,2013-11-12 10:26:00,
2013-11-12 04:31:00,24.3,19.2,30.55,NW,323,7.0,11.0,81,0.00,,,0.00,meteohub,2013-11-12 10:31:00,
2013-11-12 04:36:00,24.1,19.0,30.56,NNW,335,6.0,11.0,81,0.00,,,0.00,meteohub,2013-11-12 10:36:00,
2013-11-12 04:41:00,24.1,19.0,30.56,NW,320,6.0,12.0,81,0.00,,,0.00,meteohub,2013-11-12 10:41:00,
2013-11-12 04:46:00,24.1,19.0,30.56,NNW,342,6.0,12.0,81,0.00,,,0.00,meteohub,2013-11-12 10:46:00,
2013-11-12 04:51:00,23.7,18.7,30.56,NNW,347,6.0,12.0,81,0.00,,,0.00,meteohub,2013-11-12 10:51:00,
2013-11-12 04:56:00,23.7,18.7,30.57,NNW,345,2.0,9.0,81,0.00,,,0.00,meteohub,2013-11-12 10:56:00,
2013-11-12 05:02:00,23.7,18.7,30.57,NNW,333,6.0,9.0,81,0.00,,,0.00,meteohub,2013-11-12 11:02:00,
2013-11-12 05:07:00,23.7,19.0,30.57,NNW,327,5.0,8.0,82,0.00,,,0.00,meteohub,2013-11-12 11:07:00,
2013-11-12 05:12:00,23.7,19.0,30.57,NNW,344,6.0,9.0,82,0.00,,,0.00,meteohub,2013-11-12 11:12:00,
2013-11-12 05:17:00,23.7,19.0,30.58,NNW,340,8.0,10.0,82,0.00,,,0.00,meteohub,2013-11-12 11:17:00,
2013-11-12 05:22:00,23.7,18.7,30.58,NNW,332,6.0,10.0,81,0.00,,,0.00,meteohub,2013-11-12 11:22:00,
2013-11-12 05:27:00,23.5,18.5,30.58,North,355,5.0,10.0,81,0.00,,,0.00,meteohub,2013-11-12 11:27:00,
2013-11-12 05:32:00,23.5,18.5,30.58,NNW,334,5.0,10.0,81,0.00,,,0.00,meteohub,2013-11-12 11:32:00,
2013-11-12 05:37:00,23.5,18.5,30.59,NNW,329,4.0,9.0,81,0.00,,,0.00,meteohub,2013-11-12 11:37:00,
2013-11-12 05:42:00,23.5,18.5,30.59,NW,310,5.0,10.0,81,0.00,,,0.00,meteohub,2013-11-12 11:42:00,
2013-11-12 05:47:00,23.5,18.9,30.59,NNW,348,7.0,10.0,82,0.00,,,0.00,meteohub,2013-11-12 11:47:00,
2013-11-12 05:52:00,23.5,18.9,30.60,NNW,348,6.0,10.0,82,0.00,,,0.00,meteohub,2013-11-12 11:52:00,
2013-11-12 05:57:00,23.7,19.0,30.60,NNW,327,6.0,10.0,82,0.00,,,0.00,meteohub,2013-11-12 11:57:00,
2013-11-12 06:02:00,23.7,18.7,30.61,North,5,6.0,9.0,81,0.00,,,0.00,meteohub,2013-11-12 12:02:00,
2013-11-12 06:07:00,23.9,18.9,30.61,North,5,9.0,9.0,81,0.00,,,0.00,meteohub,2013-11-12 12:07:00,
2013-11-12 06:12:00,23.9,18.9,30.61,NNW,340,7.0,10.0,81,0.00,,,0.00,meteohub,2013-11-12 12:12:00,
2013-11-12 06:17:00,23.9,18.9,30.61,NNW,340,6.0,10.0,81,0.00,,,0.00,meteohub,2013-11-12 12:17:00,
2013-11-12 06:22:00,23.9,18.9,30.61,North,355,6.0,10.0,81,0.00,,,0.00,meteohub,2013-11-12 12:22:00,
2013-11-12 06:27:00,23.7,18.7,30.61,NNW,338,6.0,11.0,81,0.00,,,0.00,meteohub,2013-11-12 12:27:00,
2013-11-12 06:32:00,24.1,19.0,30.62,NNW,335,8.0,11.0,81,0.00,,,0.00,meteohub,2013-11-12 12:32:00,
2013-11-12 06:37:00,24.1,19.0,30.62,NW,321,4.0,11.0,81,0.00,,,0.00,meteohub,2013-11-12 12:37:00,
2013-11-12 06:42:00,24.1,19.0,30.63,NNW,337,7.0,11.0,81,0.00,,,0.00,meteohub,2013-11-12 12:42:00,
2013-11-12 06:47:00,24.3,19.0,30.63,North,5,11.0,11.0,80,0.00,,,0.00,meteohub,2013-11-12 12:47:00,
2013-11-12 06:52:00,24.3,19.0,30.64,North,0,2.0,16.0,80,0.00,,,0.00,meteohub,2013-11-12 12:52:00,
2013-11-12 06:57:00,24.4,18.9,30.64,NW,321,9.0,16.0,79,0.00,,,0.00,meteohub,2013-11-12 12:57:00,
2013-11-12 07:02:00,24.6,19.0,30.64,NNW,344,11.0,12.0,79,0.00,,,0.00,meteohub,2013-11-12 13:02:00,
2013-11-12 07:07:00,24.6,19.0,30.64,NNW,330,9.0,12.0,79,0.00,,,0.00,meteohub,2013-11-12 13:07:00,
2013-11-12 07:12:00,24.8,19.2,30.65,North,350,8.0,13.0,79,0.00,,,0.00,meteohub,2013-11-12 13:12:00,
2013-11-12 07:17:00,25.0,19.0,30.65,NNW,344,8.0,13.0,78,0.00,,,0.00,meteohub,2013-11-12 13:17:00,
2013-11-12 07:22:00,25.2,19.2,30.65,North,5,5.0,13.0,78,0.00,,,0.00,meteohub,2013-11-12 13:22:00,
2013-11-12 07:27:00,25.2,19.2,30.65,NW,322,11.0,13.0,78,0.00,,,0.00,meteohub,2013-11-12 13:27:00,
2013-11-12 07:32:00,25.2,19.2,30.66,NNE,14,7.0,13.0,78,0.00,,,0.00,meteohub,2013-11-12 13:32:00,
2013-11-12 07:37:00,25.2,19.2,30.66,NNW,329,9.0,13.0,78,0.00,,,0.00,meteohub,2013-11-12 13:37:00,
2013-11-12 07:42:00,25.2,19.2,30.66,NNW,340,9.0,13.0,78,0.00,,,0.00,meteohub,2013-11-12 13:42:00,
2013-11-12 07:47:00,25.2,19.2,30.66,North,355,6.0,13.0,78,0.00,,,0.00,meteohub,2013-11-12 13:47:00,
2013-11-12 07:52:00,25.0,19.0,30.66,North,355,5.0,14.0,78,0.00,,,0.00,meteohub,2013-11-12 13:52:00,
2013-11-12 07:57:00,25.0,19.0,30.66,NNW,328,7.0,14.0,78,0.00,,,0.00,meteohub,2013-11-12 13:57:00,
2013-11-12 08:02:00,24.8,18.9,30.66,NNW,333,6.0,13.0,78,0.00,,,0.00,meteohub,2013-11-12 14:02:00,
2013-11-12 08:07:00,25.0,19.4,30.67,NNE,30,7.0,13.0,79,0.00,,,0.00,meteohub,2013-11-12 14:07:00,
2013-11-12 08:12:00,25.2,19.2,30.66,North,9,4.0,13.0,78,0.00,,,0.00,meteohub,2013-11-12 14:12:00,
2013-11-12 08:17:00,25.3,19.8,30.66,NNW,344,8.0,12.0,79,0.00,,,0.00,meteohub,2013-11-12 14:17:00,
2013-11-12 08:22:00,25.3,19.4,30.67,North,355,6.0,11.0,78,0.00,,,0.00,meteohub,2013-11-12 14:22:00,
2013-11-12 08:27:00,25.5,19.6,30.67,NNW,348,8.0,11.0,78,0.00,,,0.00,meteohub,2013-11-12 14:27:00,
2013-11-12 08:32:00,26.2,20.3,30.67,NNW,347,6.0,11.0,78,0.00,,,0.00,meteohub,2013-11-12 14:32:00,
2013-11-12 08:37:00,26.4,20.1,30.67,North,350,9.0,12.0,77,0.00,,,0.00,meteohub,2013-11-12 14:37:00,
2013-11-12 08:42:00,26.4,19.9,30.67,NNW,327,7.0,14.0,76,0.00,,,0.00,meteohub,2013-11-12 14:42:00,
2013-11-12 08:47:00,26.2,19.9,30.68,North,355,10.0,14.0,77,0.00,,,0.00,meteohub,2013-11-12 14:47:00,
2013-11-12 08:52:00,26.4,19.9,30.68,North,350,5.0,14.0,76,0.00,,,0.00,meteohub,2013-11-12 14:52:00,
2013-11-12 08:57:00,26.8,20.3,30.68,NW,321,5.0,13.0,76,0.00,,,0.00,meteohub,2013-11-12 14:57:00,
2013-11-12 09:02:00,27.3,20.5,30.68,North,0,8.0,13.0,75,0.00,,,0.00,meteohub,2013-11-12 15:02:00,
2013-11-12 09:08:00,27.9,21.0,30.68,NNW,348,7.0,13.0,75,0.00,,,0.00,meteohub,2013-11-12 15:08:00,
2013-11-12 09:13:00,27.3,19.8,30.68,NW,313,6.0,13.0,73,0.00,,,0.00,meteohub,2013-11-12 15:13:00,
2013-11-12 09:18:00,27.0,20.1,30.69,North,349,9.0,14.0,75,0.00,,,0.00,meteohub,2013-11-12 15:18:00,
2013-11-12 09:23:00,27.0,20.1,30.69,NNW,340,8.0,16.0,75,0.00,,,0.00,meteohub,2013-11-12 15:23:00,
2013-11-12 09:28:00,27.1,20.3,30.69,North,355,10.0,16.0,75,0.00,,,0.00,meteohub,2013-11-12 15:28:00,
2013-11-12 09:33:00,27.5,20.7,30.69,North,355,7.0,16.0,75,0.00,,,0.00,meteohub,2013-11-12 15:33:00,
2013-11-12 09:39:00,27.9,21.0,30.69,NNE,31,5.0,15.0,75,0.00,,,0.00,meteohub,2013-11-12 15:39:00,
2013-11-12 09:44:00,28.0,21.4,30.69,NNW,338,9.0,15.0,76,0.00,,,0.00,meteohub,2013-11-12 15:44:00,
2013-11-12 09:49:00,28.0,21.4,30.69,NNW,348,6.0,15.0,76,0.00,,,0.00,meteohub,2013-11-12 15:49:00,
2013-11-12 09:54:00,27.9,21.0,30.70,NNW,348,8.0,11.0,75,0.00,,,0.00,meteohub,2013-11-12 15:54:00,
2013-11-12 09:59:00,27.9,21.2,30.69,NNW,344,9.0,12.0,76,0.00,,,0.00,meteohub,2013-11-12 15:59:00,
2013-11-12 10:04:00,28.0,21.4,30.70,North,10,9.0,13.0,76,0.00,,,0.00,meteohub,2013-11-12 16:04:00,
2013-11-12 10:10:00,28.0,21.2,30.69,NNW,342,12.0,14.0,75,0.00,,,0.00,meteohub,2013-11-12 16:10:00,
2013-11-12 10:15:00,28.4,21.7,30.70,NNW,347,7.0,14.0,76,0.00,,,0.00,meteohub,2013-11-12 16:15:00,
2013-11-12 10:20:00,28.9,22.3,30.70,NNW,336,6.0,13.0,76,0.00,,,0.00,meteohub,2013-11-12 16:20:00,
2013-11-12 10:25:00,28.9,22.3,30.70,NW,325,9.0,13.0,76,0.00,,,0.00,meteohub,2013-11-12 16:25:00,
2013-11-12 10:30:00,29.1,22.3,30.70,NNE,12,11.0,15.0,75,0.00,,,0.00,meteohub,2013-11-12 16:30:00,
2013-11-12 10:35:00,28.9,22.3,30.70,NNE,15,7.0,15.0,76,0.00,,,0.00,meteohub,2013-11-12 16:35:00,
2013-11-12 10:41:00,28.8,22.5,30.70,NNW,340,10.0,18.0,77,0.00,,,0.00,meteohub,2013-11-12 16:41:00,
2013-11-12 10:46:00,28.8,22.8,30.70,NNW,328,8.0,18.0,78,0.00,,,0.00,meteohub,2013-11-12 16:46:00,
2013-11-12 10:51:00,28.9,23.2,30.70,NNW,331,7.0,18.0,79,0.00,,,0.00,meteohub,2013-11-12 16:51:00,
2013-11-12 10:56:00,28.9,23.5,30.70,North,11,11.0,15.0,80,0.00,,,0.00,meteohub,2013-11-12 16:56:00,
2013-11-12 11:01:00,28.6,22.8,30.70,NW,325,11.0,15.0,79,0.00,,,0.00,meteohub,2013-11-12 17:01:00,
2013-11-12 11:06:00,28.6,23.5,30.70,North,0,6.0,16.0,81,0.00,,,0.00,meteohub,2013-11-12 17:06:00,
2013-11-12 11:12:00,28.8,23.7,30.70,NNW,331,11.0,16.0,81,0.00,,,0.00,meteohub,2013-11-12 17:12:00,
2013-11-12 11:17:00,29.1,24.1,30.69,North,350,7.0,14.0,81,0.00,,,0.00,meteohub,2013-11-12 17:17:00,
2013-11-12 11:22:00,29.1,23.7,30.69,North,5,1.0,12.0,80,0.00,,,0.00,meteohub,2013-11-12 17:22:00,
2013-11-12 11:27:00,29.5,24.1,30.69,NW,309,6.0,12.0,80,0.00,,,0.00,meteohub,2013-11-12 17:27:00,
2013-11-12 11:32:00,29.7,23.9,30.69,North,0,9.0,12.0,79,0.00,,,0.00,meteohub,2013-11-12 17:32:00,
2013-11-12 11:37:00,30.0,24.3,30.69,NW,309,11.0,13.0,79,0.00,,,0.00,meteohub,2013-11-12 17:37:00,
2013-11-12 11:42:00,30.0,23.4,30.69,NW,314,11.0,14.0,76,0.00,,,0.00,meteohub,2013-11-12 17:42:00,
2013-11-12 11:47:00,30.2,23.9,30.68,NNW,336,6.0,14.0,77,0.00,,,0.00,meteohub,2013-11-12 17:47:00,
2013-11-12 11:52:00,30.6,23.9,30.68,NNE,24,9.0,14.0,76,0.00,,,0.00,meteohub,2013-11-12 17:52:00,
2013-11-12 11:57:00,30.7,24.4,30.68,North,0,9.0,14.0,77,0.00,,,0.00,meteohub,2013-11-12 17:57:00,
2013-11-12 12:02:00,30.7,24.4,30.68,NNW,331,6.0,12.0,77,0.01,,,0.01,meteohub,2013-11-12 18:02:00,
2013-11-12 12:07:00,30.9,24.3,30.68,NW,322,4.0,12.0,76,0.01,,,0.01,meteohub,2013-11-12 18:07:00,
2013-11-12 12:12:00,31.5,25.2,30.68,NNW,329,9.0,13.0,77,0.01,,,0.01,meteohub,2013-11-12 18:12:00,
2013-11-12 12:17:00,31.5,24.4,30.68,NNW,345,14.0,14.0,75,0.01,,,0.01,meteohub,2013-11-12 18:17:00,
2013-11-12 12:22:00,31.5,24.4,30.68,NNW,342,6.0,14.0,75,0.01,,,0.01,meteohub,2013-11-12 18:22:00,
2013-11-12 12:27:00,31.6,25.0,30.68,NNW,328,10.0,14.0,76,0.01,,,0.01,meteohub,2013-11-12 18:27:00,
2013-11-12 12:32:00,32.0,25.0,30.68,North,9,8.0,15.0,75,0.01,,,0.01,meteohub,2013-11-12 18:32:00,
2013-11-12 12:37:00,32.2,24.8,30.68,NNW,344,9.0,15.0,74,0.01,,,0.01,meteohub,2013-11-12 18:37:00,
2013-11-12 12:42:00,32.5,25.5,30.68,NNE,13,9.0,15.0,75,0.01,,,0.01,meteohub,2013-11-12 18:42:00,
2013-11-12 12:47:00,32.7,25.0,30.68,North,355,11.0,15.0,73,0.01,,,0.01,meteohub,2013-11-12 18:47:00,
2013-11-12 12:52:00,32.2,24.8,30.68,North,349,12.0,16.0,74,0.01,,,0.01,meteohub,2013-11-12 18:52:00,
2013-11-12 12:57:00,32.2,24.8,30.68,North,355,7.0,16.0,74,0.00,,,0.01,meteohub,2013-11-12 18:57:00,
2013-11-12 13:02:00,32.4,25.0,30.68,North,5,8.0,16.0,74,0.00,,,0.01,meteohub,2013-11-12 19:02:00,
2013-11-12 13:07:00,32.7,25.3,30.68,NNW,340,6.0,14.0,74,0.00,,,0.01,meteohub,2013-11-12 19:07:00,
2013-11-12 13:12:00,32.5,25.2,30.68,North,355,7.0,14.0,74,0.00,,,0.01,meteohub,2013-11-12 19:12:00,
2013-11-12 13:17:00,32.9,25.5,30.68,NNW,331,14.0,14.0,74,0.00,,,0.01,meteohub,2013-11-12 19:17:00,
2013-11-12 13:22:00,33.1,26.1,30.68,NW,317,10.0,15.0,75,0.00,,,0.01,meteohub,2013-11-12 19:22:00,
2013-11-12 13:27:00,32.9,25.2,30.68,NNW,327,5.0,15.0,73,0.00,,,0.01,meteohub,2013-11-12 19:27:00,
2013-11-12 13:32:00,33.3,25.5,30.68,NNW,340,8.0,15.0,73,0.00,,,0.01,meteohub,2013-11-12 19:32:00,
2013-11-12 13:37:00,32.7,25.0,30.68,NW,312,9.0,14.0,73,0.00,,,0.01,meteohub,2013-11-12 19:37:00,
2013-11-12 13:42:00,32.5,24.8,30.67,NNW,334,8.0,16.0,73,0.00,,,0.01,meteohub,2013-11-12 19:42:00,
2013-11-12 13:47:00,32.5,24.8,30.67,NNW,342,10.0,16.0,73,0.00,,,0.01,meteohub,2013-11-12 19:47:00,
2013-11-12 13:52:00,32.4,24.3,30.68,NNW,342,9.0,16.0,72,0.00,,,0.01,meteohub,2013-11-12 19:52:00,
2013-11-12 13:57:00,32.5,24.8,30.68,NW,311,9.0,16.0,73,0.00,,,0.01,meteohub,2013-11-12 19:57:00,
2013-11-12 14:02:00,32.7,25.3,30.68,NNE,13,8.0,14.0,74,0.00,,,0.01,meteohub,2013-11-12 20:02:00,
2013-11-12 14:07:00,33.3,25.5,30.67,NNW,341,7.0,13.0,73,0.00,,,0.01,meteohub,2013-11-12 20:07:00,
2013-11-12 14:12:00,33.3,24.3,30.68,North,351,6.0,13.0,69,0.00,,,0.01,meteohub,2013-11-12 20:12:00,
2013-11-12 14:17:00,33.1,23.7,30.68,NNW,331,8.0,13.0,68,0.00,,,0.01,meteohub,2013-11-12 20:17:00,
2013-11-12 14:22:00,33.3,23.9,30.68,WNW,300,9.0,14.0,68,0.00,,,0.01,meteohub,2013-11-12 20:22:00,
2013-11-12 14:27:00,33.3,24.3,30.68,NNW,335,8.0,14.0,69,0.00,,,0.01,meteohub,2013-11-12 20:27:00,
2013-11-12 14:32:00,32.9,23.5,30.68,NNW,331,6.0,14.0,68,0.00,,,0.01,meteohub,2013-11-12 20:32:00,
2013-11-12 14:37:00,32.7,23.4,30.68,NW,319,12.0,13.0,68,0.00,,,0.01,meteohub,2013-11-12 20:37:00,
2013-11-12 14:42:00,32.7,23.0,30.68,NW,306,9.0,14.0,67,0.00,,,0.01,meteohub,2013-11-12 20:42:00,
2013-11-12 14:47:00,32.5,23.2,30.68,WNW,302,7.0,14.0,68,0.00,,,0.01,meteohub,2013-11-12 20:47:00,
2013-11-12 14:52:00,32.4,22.3,30.68,North,0,6.0,14.0,66,0.00,,,0.01,meteohub,2013-11-12 20:52:00,
2013-11-12 14:57:00,32.5,22.8,30.69,NNW,336,6.0,14.0,67,0.00,,,0.01,meteohub,2013-11-12 20:57:00,
2013-11-12 15:02:00,32.9,22.8,30.68,NNW,346,9.0,13.0,66,0.00,,,0.01,meteohub,2013-11-12 21:02:00,
2013-11-12 15:07:00,32.7,22.6,30.69,North,355,6.0,13.0,66,0.00,,,0.01,meteohub,2013-11-12 21:07:00,
2013-11-12 15:12:00,32.5,22.8,30.69,NW,318,8.0,13.0,67,0.00,,,0.01,meteohub,2013-11-12 21:12:00,
2013-11-12 15:17:00,32.5,23.2,30.69,North,355,6.0,13.0,68,0.00,,,0.01,meteohub,2013-11-12 21:17:00,
2013-11-12 15:22:00,32.7,23.7,30.69,NW,313,7.0,13.0,69,0.00,,,0.01,meteohub,2013-11-12 21:22:00,
2013-11-12 15:27:00,32.7,23.4,30.69,NW,319,7.0,15.0,68,0.00,,,0.01,meteohub,2013-11-12 21:27:00,
2013-11-12 15:32:00,32.5,22.8,30.69,NNW,335,5.0,15.0,67,0.00,,,0.01,meteohub,2013-11-12 21:32:00,
2013-11-12 15:37:00,32.5,22.5,30.69,NW,316,9.0,15.0,66,0.00,,,0.01,meteohub,2013-11-12 21:37:00,
2013-11-12 15:42:00,32.4,21.9,30.69,NW,308,6.0,13.0,65,0.00,,,0.01,meteohub,2013-11-12 21:42:00,
2013-11-12 15:47:00,32.4,21.9,30.69,NNW,340,4.0,13.0,65,0.00,,,0.01,meteohub,2013-11-12 21:47:00,
2013-11-12 15:52:00,32.2,21.7,30.69,NW,315,8.0,13.0,65,0.00,,,0.01,meteohub,2013-11-12 21:52:00,
2013-11-12 15:57:00,31.8,21.7,30.69,NW,316,2.0,12.0,66,0.00,,,0.01,meteohub,2013-11-12 21:57:00,
2013-11-12 16:02:00,31.6,21.9,30.69,NNW,340,5.0,11.0,67,0.00,,,0.01,meteohub,2013-11-12 22:02:00,
2013-11-12 16:07:00,31.5,21.7,30.69,NNW,334,6.0,11.0,67,0.00,,,0.01,meteohub,2013-11-12 22:07:00,
2013-11-12 16:12:00,31.5,22.1,30.69,WNW,302,6.0,11.0,68,0.00,,,0.01,meteohub,2013-11-12 22:12:00,
2013-11-12 16:17:00,31.3,21.9,30.69,NNW,346,8.0,11.0,68,0.00,,,0.01,meteohub,2013-11-12 22:17:00,
2013-11-12 16:22:00,31.3,21.9,30.69,NW,306,5.0,10.0,68,0.00,,,0.01,meteohub,2013-11-12 22:22:00,
2013-11-12 16:27:00,30.9,21.9,30.68,WNW,297,6.0,9.0,69,0.00,,,0.01,meteohub,2013-11-12 22:27:00,
2013-11-12 16:32:00,30.7,21.4,30.68,NW,317,5.0,9.0,68,0.00,,,0.01,meteohub,2013-11-12 22:32:00,
2013-11-12 16:37:00,30.6,21.2,30.68,NNW,336,4.0,9.0,68,0.00,,,0.01,meteohub,2013-11-12 22:37:00,
2013-11-12 16:42:00,30.6,21.6,30.68,NW,324,6.0,9.0,69,0.00,,,0.01,meteohub,2013-11-12 22:42:00,
2013-11-12 16:47:00,30.4,21.4,30.68,NW,324,4.0,10.0,69,0.00,,,0.01,meteohub,2013-11-12 22:47:00,
2013-11-12 16:52:00,30.4,21.4,30.68,WNW,300,4.0,10.0,69,0.00,,,0.01,meteohub,2013-11-12 22:52:00,
2013-11-12 16:57:00,30.2,21.2,30.68,NNW,329,7.0,10.0,69,0.00,,,0.01,meteohub,2013-11-12 22:57:00,
2013-11-12 17:02:00,30.0,21.0,30.68,NW,321,4.0,8.0,69,0.00,,,0.01,meteohub,2013-11-12 23:02:00,
2013-11-12 17:07:00,30.0,21.0,30.68,NNW,336,4.0,8.0,69,0.00,,,0.01,meteohub,2013-11-12 23:07:00,
2013-11-12 17:12:00,29.8,21.2,30.67,NNW,336,1.0,8.0,70,0.00,,,0.01,meteohub,2013-11-12 23:12:00,
2013-11-12 17:17:00,29.8,21.2,30.67,NNW,336,1.0,8.0,70,0.00,,,0.01,meteohub,2013-11-12 23:17:00,
2013-11-12 17:22:00,29.7,21.0,30.67,North,-999,-999.0,6.0,70,0.00,,,0.01,meteohub,2013-11-12 23:22:00,
2013-11-12 17:27:00,29.7,21.4,30.67,NW,323,4.0,5.0,71,0.00,,,0.01,meteohub,2013-11-12 23:27:00,
2013-11-12 17:32:00,29.5,21.2,30.68,WNW,303,5.0,6.0,71,0.00,,,0.01,meteohub,2013-11-12 23:32:00,
2013-11-12 17:37:00,29.3,21.0,30.68,NW,313,4.0,8.0,71,0.00,,,0.01,meteohub,2013-11-12 23:37:00,
2013-11-12 17:42:00,29.1,21.2,30.67,NW,323,2.0,8.0,72,0.00,,,0.01,meteohub,2013-11-12 23:42:00,
2013-11-12 17:47:00,29.1,21.2,30.68,NNW,334,3.0,8.0,72,0.00,,,0.01,meteohub,2013-11-12 23:47:00,
2013-11-12 17:52:00,28.9,21.0,30.68,WNW,302,2.0,6.0,72,0.00,,,0.01,meteohub,2013-11-12 23:52:00,
2013-11-12 17:57:00,28.8,20.8,30.68,NW,318,4.0,6.0,72,0.00,,,0.01,meteohub,2013-11-12 23:57:00,
2013-11-12 18:02:00,28.8,21.2,30.68,NW,325,2.0,6.0,73,0.00,,,0.01,meteohub,2013-11-13 00:02:00,
2013-11-12 18:07:00,28.8,21.2,30.69,NW,313,4.0,6.0,73,0.00,,,0.01,meteohub,2013-11-13 00:07:00,
2013-11-12 18:12:00,28.8,21.2,30.68,WNW,303,2.0,6.0,73,0.00,,,0.01,meteohub,2013-11-13 00:12:00,
2013-11-12 18:17:00,28.6,21.0,30.68,NW,322,4.0,6.0,73,0.00,,,0.01,meteohub,2013-11-13 00:17:00,
2013-11-12 18:22:00,28.4,21.2,30.68,NW,304,5.0,7.0,74,0.00,,,0.01,meteohub,2013-11-13 00:22:00,
2013-11-12 18:27:00,28.2,21.0,30.68,NW,310,6.0,7.0,74,0.00,,,0.01,meteohub,2013-11-13 00:27:00,
2013-11-12 18:32:00,28.2,21.4,30.69,NW,316,4.0,8.0,75,0.00,,,0.01,meteohub,2013-11-13 00:32:00,
2013-11-12 18:37:00,28.0,21.2,30.68,NW,313,5.0,8.0,75,0.00,,,0.01,meteohub,2013-11-13 00:37:00,
2013-11-12 18:42:00,28.0,21.4,30.68,NW,305,3.0,8.0,76,0.00,,,0.01,meteohub,2013-11-13 00:42:00,
2013-11-12 18:47:00,27.9,21.2,30.68,WNW,300,5.0,7.0,76,0.00,,,0.01,meteohub,2013-11-13 00:47:00,
2013-11-12 18:52:00,27.9,21.6,30.68,NW,304,4.0,6.0,77,0.00,,,0.01,meteohub,2013-11-13 00:52:00,
2013-11-12 18:57:00,27.7,21.4,30.68,NW,321,2.0,6.0,77,0.00,,,0.01,meteohub,2013-11-13 00:57:00,
2013-11-12 19:02:00,27.7,21.4,30.68,West,277,1.0,6.0,77,0.00,,,0.01,meteohub,2013-11-13 01:02:00,
2013-11-12 19:07:00,27.3,21.0,30.68,NW,306,0.0,6.0,77,0.00,,,0.01,meteohub,2013-11-13 01:07:00,
2013-11-12 19:12:00,27.1,21.2,30.68,WNW,286,3.0,5.0,78,0.00,,,0.01,meteohub,2013-11-13 01:12:00,
2013-11-12 19:17:00,27.1,21.2,30.68,NW,321,5.0,5.0,78,0.00,,,0.01,meteohub,2013-11-13 01:17:00,
2013-11-12 19:22:00,27.1,21.2,30.68,NW,309,1.0,5.0,78,0.00,,,0.01,meteohub,2013-11-13 01:22:00,
2013-11-12 19:27:00,27.1,21.2,30.68,NW,311,1.0,6.0,78,0.00,,,0.01,meteohub,2013-11-13 01:27:00,
2013-11-12 19:32:00,27.1,21.2,30.68,WNW,303,1.0,6.0,78,0.00,,,0.01,meteohub,2013-11-13 01:32:00,
2013-11-12 19:37:00,27.0,21.4,30.68,WNW,297,1.0,6.0,79,0.00,,,0.01,meteohub,2013-11-13 01:37:00,
2013-11-12 19:42:00,27.0,21.4,30.68,WNW,297,2.0,5.0,79,0.00,,,0.01,meteohub,2013-11-13 01:42:00,
2013-11-12 19:47:00,26.8,21.2,30.68,NW,307,1.0,5.0,79,0.00,,,0.01,meteohub,2013-11-13 01:47:00,
2013-11-12 19:52:00,26.8,21.2,30.68,NW,323,5.0,5.0,79,0.00,,,0.01,meteohub,2013-11-13 01:52:00,
2013-11-12 19:57:00,26.8,21.2,30.68,WNW,298,4.0,6.0,79,0.00,,,0.01,meteohub,2013-11-13 01:57:00,
2013-11-12 20:02:00,26.6,21.0,30.68,WNW,300,1.0,6.0,79,0.00,,,0.01,meteohub,2013-11-13 02:02:00,
2013-11-12 20:07:00,26.6,21.0,30.68,WNW,291,2.0,7.0,79,0.00,,,0.01,meteohub,2013-11-13 02:07:00,
2013-11-12 20:12:00,26.4,21.0,30.68,NW,323,2.0,7.0,80,0.00,,,0.01,meteohub,2013-11-13 02:12:00,
2013-11-12 20:17:00,26.4,21.0,30.68,NW,315,4.0,7.0,80,0.00,,,0.01,meteohub,2013-11-13 02:17:00,
2013-11-12 20:22:00,26.4,21.0,30.68,NW,319,1.0,6.0,80,0.00,,,0.01,meteohub,2013-11-13 02:22:00,
2013-11-12 20:27:00,26.2,20.8,30.68,WNW,301,5.0,6.0,80,0.00,,,0.01,meteohub,2013-11-13 02:27:00,
2013-11-12 20:32:00,26.2,20.8,30.68,NW,312,3.0,6.0,80,0.00,,,0.01,meteohub,2013-11-13 02:32:00,
2013-11-12 20:37:00,26.2,21.2,30.68,NW,313,3.0,7.0,81,0.00,,,0.01,meteohub,2013-11-13 02:37:00,
2013-11-12 20:42:00,26.1,21.0,30.68,NW,317,1.0,7.0,81,0.00,,,0.01,meteohub,2013-11-13 02:42:00,
2013-11-12 20:47:00,25.9,20.8,30.69,NW,304,1.0,6.0,81,0.00,,,0.01,meteohub,2013-11-13 02:47:00,
2013-11-12 20:52:00,25.9,20.8,30.69,West,271,1.0,5.0,81,0.00,,,0.01,meteohub,2013-11-13 02:52:00,
2013-11-12 20:57:00,25.7,20.7,30.69,NW,309,4.0,5.0,81,0.00,,,0.01,meteohub,2013-11-13 02:57:00,
2013-11-12 21:02:00,25.7,21.0,30.69,NW,314,0.0,5.0,82,0.00,,,0.01,meteohub,2013-11-13 03:02:00,
2013-11-12 21:07:00,25.7,21.0,30.69,WNW,292,0.0,5.0,82,0.00,,,0.01,meteohub,2013-11-13 03:07:00,
2013-11-12 21:12:00,25.5,20.8,30.69,WNW,292,0.0,5.0,82,0.00,,,0.01,meteohub,2013-11-13 03:12:00,
2013-11-12 21:17:00,25.3,20.3,30.69,WNW,291,1.0,5.0,81,0.00,,,0.01,meteohub,2013-11-13 03:17:00,
2013-11-12 21:22:00,25.2,20.5,30.69,WNW,291,1.0,4.0,82,0.00,,,0.01,meteohub,2013-11-13 03:22:00,
2013-11-12 21:27:00,25.0,20.5,30.69,WNW,291,0.0,3.0,83,0.00,,,0.01,meteohub,2013-11-13 03:27:00,
2013-11-12 21:32:00,25.0,20.5,30.69,WNW,291,0.0,3.0,83,0.00,,,0.01,meteohub,2013-11-13 03:32:00,
2013-11-12 21:37:00,24.8,20.3,30.69,WNW,291,0.0,3.0,83,0.00,,,0.01,meteohub,2013-11-13 03:37:00,
2013-11-12 21:42:00,24.6,20.1,30.68,WNW,291,0.0,3.0,83,0.00,,,0.01,meteohub,2013-11-13 03:42:00,
2013-11-12 21:47:00,24.6,20.1,30.68,WNW,291,0.0,2.0,83,0.00,,,0.01,meteohub,2013-11-13 03:47:00,
2013-11-12 21:52:00,24.6,20.5,30.67,WNW,291,0.0,2.0,84,0.00,,,0.01,meteohub,2013-11-13 03:52:00,
2013-11-12 21:57:00,24.8,20.3,30.67,WNW,291,0.0,3.0,83,0.00,,,0.01,meteohub,2013-11-13 03:57:00,
2013-11-12 22:02:00,24.6,20.1,30.67,WNW,291,0.0,3.0,83,0.00,,,0.01,meteohub,2013-11-13 04:02:00,
2013-11-12 22:07:00,24.6,20.1,30.67,WNW,291,0.0,3.0,83,0.00,,,0.01,meteohub,2013-11-13 04:07:00,
2013-11-12 22:12:00,24.4,19.9,30.67,WNW,291,0.0,2.0,83,0.00,,,0.01,meteohub,2013-11-13 04:12:00,
2013-11-12 22:17:00,24.3,20.1,30.67,WNW,291,0.0,1.0,84,0.00,,,0.01,meteohub,2013-11-13 04:17:00,
2013-11-12 22:22:00,24.1,19.9,30.67,WNW,291,0.0,1.0,84,0.00,,,0.01,meteohub,2013-11-13 04:22:00,
2013-11-12 22:27:00,24.1,20.3,30.67,WNW,291,2.0,2.0,85,0.00,,,0.01,meteohub,2013-11-13 04:27:00,
2013-11-12 22:32:00,23.9,20.3,30.67,WNW,291,0.0,4.0,86,0.00,,,0.01,meteohub,2013-11-13 04:32:00,
2013-11-12 22:37:00,23.7,20.1,30.67,WNW,291,0.0,4.0,86,0.00,,,0.01,meteohub,2013-11-13 04:37:00,
2013-11-12 22:42:00,23.5,19.9,30.67,WNW,291,0.0,4.0,86,0.00,,,0.01,meteohub,2013-11-13 04:42:00,
2013-11-12 22:47:00,23.2,19.6,30.67,WNW,291,0.0,2.0,86,0.00,,,0.01,meteohub,2013-11-13 04:47:00,
2013-11-12 22:52:00,23.2,19.9,30.68,WNW,291,1.0,2.0,87,0.00,,,0.01,meteohub,2013-11-13 04:52:00,
2013-11-12 22:57:00,23.2,19.9,30.68,WNW,291,2.0,2.0,87,0.00,,,0.01,meteohub,2013-11-13 04:57:00,
2013-11-12 23:01:00,23.2,20.1,30.68,WNW,291,1.0,3.0,88,0.00,,,0.01,meteohub,2013-11-13 05:01:00,
2013-11-12 23:02:00,23.2,20.1,30.68,WNW,291,0.0,3.0,88,0.00,,,0.01,meteohub,2013-11-13 05:02:00,
2013-11-12 23:03:00,23.2,20.1,30.68,WNW,291,1.0,3.0,88,0.00,,,0.01,meteohub,2013-11-13 05:03:00,
2013-11-12 23:05:00,23.4,20.3,30.68,WNW,291,1.0,3.0,88,0.00,,,0.01,meteohub,2013-11-13 05:05:00,
2013-11-12 23:08:00,23.4,20.3,30.67,WNW,291,2.0,3.0,88,0.00,,,0.01,meteohub,2013-11-13 05:08:00,
2013-11-12 23:09:00,23.4,20.3,30.67,WNW,291,1.0,3.0,88,0.00,,,0.01,meteohub,2013-11-13 05:09:00,
2013-11-12 23:14:00,23.4,20.3,30.67,WNW,291,4.0,4.0,88,0.00,,,0.01,meteohub,2013-11-13 05:14:00,
2013-11-12 23:20:00,23.4,20.1,30.67,WNW,291,2.0,4.0,87,0.00,,,0.01,meteohub,2013-11-13 05:20:00,
2013-11-12 23:25:00,23.4,20.1,30.67,WNW,291,1.0,4.0,87,0.00,,,0.01,meteohub,2013-11-13 05:25:00,
2013-11-12 23:30:00,23.4,20.1,30.67,WNW,291,2.0,4.0,87,0.00,,,0.01,meteohub,2013-11-13 05:30:00,
2013-11-12 23:35:00,23.4,20.1,30.67,WNW,292,2.0,5.0,87,0.00,,,0.01,meteohub,2013-11-13 05:35:00,
2013-11-12 23:40:00,23.4,20.1,30.67,West,262,2.0,5.0,87,0.00,,,0.01,meteohub,2013-11-13 05:40:00,
2013-11-12 23:45:00,23.4,19.8,30.67,West,269,0.0,5.0,86,0.00,,,0.01,meteohub,2013-11-13 05:45:00,
2013-11-12 23:50:00,23.4,19.8,30.67,West,271,2.0,5.0,86,0.00,,,0.01,meteohub,2013-11-13 05:50:00,
2013-11-12 23:55:00,23.2,19.6,30.67,NW,305,4.0,4.0,86,0.00,,,0.01,meteohub,2013-11-13 05:55:00,